sensor_id;sensor_type;location;lat;lon;timestamp;pressure;altitude;pressure_sealevel;temperature;humidity
25420;BME280;13354;48.174;11.566;2023-02-28T00:01:05;96168.31;;;-1.20;65.45
25420;BME280;13354;48.174;11.566;2023-02-28T00:03:30;96162.84;;;-1.29;65.39
25420;BME280;13354;48.174;11.566;2023-02-28T00:06:00;96156.91;;;-1.31;65.64
25420;BME280;13354;48.174;11.566;2023-02-28T00:08:25;96151.72;;;-1.31;65.92
25420;BME280;13354;48.174;11.566;2023-02-28T00:10:50;96153.63;;;-1.22;66.44
25420;BME280;13354;48.174;11.566;2023-02-28T00:13:15;96151.44;;;-1.15;65.59
25420;BME280;13354;48.174;11.566;2023-02-28T00:15:41;96157.50;;;-1.27;65.09
25420;BME280;13354;48.174;11.566;2023-02-28T00:18:06;96146.09;;;-1.25;65.43
25420;BME280;13354;48.174;11.566;2023-02-28T00:20:31;96147.00;;;-1.26;65.84
25420;BME280;13354;48.174;11.566;2023-02-28T00:22:57;96150.88;;;-1.31;65.62
25420;BME280;13354;48.174;11.566;2023-02-28T00:25:23;96145.25;;;-1.25;65.64
25420;BME280;13354;48.174;11.566;2023-02-28T00:27:49;96144.94;;;-1.20;66.15
25420;BME280;13354;48.174;11.566;2023-02-28T00:30:16;96148.19;;;-1.42;65.75
25420;BME280;13354;48.174;11.566;2023-02-28T00:32:42;96144.56;;;-1.40;65.95
25420;BME280;13354;48.174;11.566;2023-02-28T00:35:08;96144.94;;;-1.33;66.10
25420;BME280;13354;48.174;11.566;2023-02-28T00:37:33;96141.75;;;-1.37;66.39
25420;BME280;13354;48.174;11.566;2023-02-28T00:39:59;96142.56;;;-1.36;65.62
25420;BME280;13354;48.174;11.566;2023-02-28T00:42:24;96137.50;;;-1.38;66.26
25420;BME280;13354;48.174;11.566;2023-02-28T00:44:49;96139.38;;;-1.40;66.65
25420;BME280;13354;48.174;11.566;2023-02-28T00:47:14;96142.41;;;-1.46;67.01
25420;BME280;13354;48.174;11.566;2023-02-28T00:49:40;96132.72;;;-1.44;66.25
25420;BME280;13354;48.174;11.566;2023-02-28T00:52:05;96135.84;;;-1.39;66.21
25420;BME280;13354;48.174;11.566;2023-02-28T00:54:30;96139.50;;;-1.54;66.13
25420;BME280;13354;48.174;11.566;2023-02-28T00:56:56;96140.81;;;-1.49;66.52
25420;BME280;13354;48.174;11.566;2023-02-28T00:59:21;96143.53;;;-1.50;66.48
25420;BME280;13354;48.174;11.566;2023-02-28T01:01:46;96149.47;;;-1.61;66.61
25420;BME280;13354;48.174;11.566;2023-02-28T01:04:11;96142.63;;;-1.62;66.87
25420;BME280;13354;48.174;11.566;2023-02-28T01:06:37;96141.47;;;-1.71;67.25
25420;BME280;13354;48.174;11.566;2023-02-28T01:09:03;96143.97;;;-1.56;67.35
25420;BME280;13354;48.174;11.566;2023-02-28T01:11:28;96138.88;;;-1.58;66.80
25420;BME280;13354;48.174;11.566;2023-02-28T01:13:53;96137.19;;;-1.46;66.94
25420;BME280;13354;48.174;11.566;2023-02-28T01:16:19;96137.53;;;-1.51;67.25
25420;BME280;13354;48.174;11.566;2023-02-28T01:18:44;96135.06;;;-1.65;67.57
25420;BME280;13354;48.174;11.566;2023-02-28T01:21:13;96133.00;;;-1.73;67.49
25420;BME280;13354;48.174;11.566;2023-02-28T01:23:40;96129.75;;;-1.63;67.53
25420;BME280;13354;48.174;11.566;2023-02-28T01:26:10;96125.09;;;-1.71;67.58
25420;BME280;13354;48.174;11.566;2023-02-28T01:28:35;96125.38;;;-1.63;67.59
25420;BME280;13354;48.174;11.566;2023-02-28T01:31:01;96123.22;;;-1.69;67.59
25420;BME280;13354;48.174;11.566;2023-02-28T01:33:26;96123.44;;;-1.72;67.26
25420;BME280;13354;48.174;11.566;2023-02-28T01:36:01;96119.06;;;-1.72;67.84
25420;BME280;13354;48.174;11.566;2023-02-28T01:38:27;96120.00;;;-1.73;67.97
25420;BME280;13354;48.174;11.566;2023-02-28T01:40:52;96117.38;;;-1.60;67.72
25420;BME280;13354;48.174;11.566;2023-02-28T01:45:46;96108.88;;;-1.62;67.97
25420;BME280;13354;48.174;11.566;2023-02-28T01:48:11;96115.31;;;-1.67;67.89
25420;BME280;13354;48.174;11.566;2023-02-28T01:50:38;96117.94;;;-1.80;68.25
25420;BME280;13354;48.174;11.566;2023-02-28T01:53:06;96114.19;;;-1.76;68.21
25420;BME280;13354;48.174;11.566;2023-02-28T01:55:32;96109.00;;;-1.76;68.17
25420;BME280;13354;48.174;11.566;2023-02-28T01:57:58;96112.31;;;-1.74;68.73
25420;BME280;13354;48.174;11.566;2023-02-28T02:00:26;96115.84;;;-1.75;68.52
25420;BME280;13354;48.174;11.566;2023-02-28T02:02:53;96114.50;;;-1.68;68.30
25420;BME280;13354;48.174;11.566;2023-02-28T02:05:20;96106.00;;;-1.83;68.77
25420;BME280;13354;48.174;11.566;2023-02-28T02:07:46;96105.66;;;-1.78;69.08
25420;BME280;13354;48.174;11.566;2023-02-28T02:17:51;96104.56;;;-1.87;69.72
25420;BME280;13354;48.174;11.566;2023-02-28T02:23:47;96106.00;;;-1.83;69.48
25420;BME280;13354;48.174;11.566;2023-02-28T02:25:49;96101.75;;;-1.84;69.55
25420;BME280;13354;48.174;11.566;2023-02-28T02:35:47;96094.78;;;-1.83;69.78
25420;BME280;13354;48.174;11.566;2023-02-28T02:38:20;96100.19;;;-1.86;69.41
25420;BME280;13354;48.174;11.566;2023-02-28T02:40:53;96094.88;;;-1.85;69.59
25420;BME280;13354;48.174;11.566;2023-02-28T02:43:22;96101.84;;;-1.98;69.78
25420;BME280;13354;48.174;11.566;2023-02-28T02:45:57;96096.56;;;-1.84;69.67
25420;BME280;13354;48.174;11.566;2023-02-28T02:48:25;96091.56;;;-1.87;69.77
25420;BME280;13354;48.174;11.566;2023-02-28T02:50:53;96085.97;;;-1.93;69.38
25420;BME280;13354;48.174;11.566;2023-02-28T02:53:20;96087.41;;;-1.89;69.58
25420;BME280;13354;48.174;11.566;2023-02-28T02:55:47;96088.16;;;-2.00;70.28
25420;BME280;13354;48.174;11.566;2023-02-28T02:58:17;96091.47;;;-1.98;70.26
25420;BME280;13354;48.174;11.566;2023-02-28T03:00:45;96093.75;;;-2.06;70.30
25420;BME280;13354;48.174;11.566;2023-02-28T03:03:12;96084.59;;;-1.99;71.23
25420;BME280;13354;48.174;11.566;2023-02-28T03:05:42;96096.03;;;-2.14;71.20
25420;BME280;13354;48.174;11.566;2023-02-28T03:08:10;96090.44;;;-2.08;70.71
25420;BME280;13354;48.174;11.566;2023-02-28T03:15:50;96083.06;;;-2.02;70.78
25420;BME280;13354;48.174;11.566;2023-02-28T03:21:14;96092.91;;;-2.07;71.70
25420;BME280;13354;48.174;11.566;2023-02-28T03:26:23;96095.63;;;-2.08;71.59
25420;BME280;13354;48.174;11.566;2023-02-28T03:28:58;96095.94;;;-2.00;71.42
25420;BME280;13354;48.174;11.566;2023-02-28T03:34:06;96096.56;;;-2.09;71.88
25420;BME280;13354;48.174;11.566;2023-02-28T03:36:33;96096.34;;;-2.06;72.76
25420;BME280;13354;48.174;11.566;2023-02-28T03:39:07;96098.53;;;-2.00;72.24
25420;BME280;13354;48.174;11.566;2023-02-28T03:41:38;96103.81;;;-1.89;71.94
25420;BME280;13354;48.174;11.566;2023-02-28T03:47:00;96090.66;;;-1.99;72.03
25420;BME280;13354;48.174;11.566;2023-02-28T03:49:32;96096.25;;;-2.05;72.68
25420;BME280;13354;48.174;11.566;2023-02-28T03:51:59;96100.91;;;-1.97;72.51
25420;BME280;13354;48.174;11.566;2023-02-28T03:54:48;96098.72;;;-2.03;72.67
25420;BME280;13354;48.174;11.566;2023-02-28T03:57:13;96102.78;;;-1.99;72.45
25420;BME280;13354;48.174;11.566;2023-02-28T03:59:50;96111.63;;;-2.02;72.04
25420;BME280;13354;48.174;11.566;2023-02-28T04:02:19;96101.13;;;-2.00;72.30
25420;BME280;13354;48.174;11.566;2023-02-28T04:04:44;96106.31;;;-2.13;72.40
25420;BME280;13354;48.174;11.566;2023-02-28T04:07:13;96107.06;;;-1.98;72.46
25420;BME280;13354;48.174;11.566;2023-02-28T04:09:38;96116.78;;;-1.89;71.87
25420;BME280;13354;48.174;11.566;2023-02-28T04:12:04;96111.09;;;-2.07;72.88
25420;BME280;13354;48.174;11.566;2023-02-28T04:14:29;96118.47;;;-2.01;72.43
25420;BME280;13354;48.174;11.566;2023-02-28T04:16:54;96126.13;;;-1.99;72.60
25420;BME280;13354;48.174;11.566;2023-02-28T04:19:21;96119.59;;;-2.05;72.25
25420;BME280;13354;48.174;11.566;2023-02-28T04:21:47;96123.94;;;-1.92;72.10
25420;BME280;13354;48.174;11.566;2023-02-28T04:24:13;96132.56;;;-1.92;71.94
25420;BME280;13354;48.174;11.566;2023-02-28T04:26:40;96131.13;;;-2.09;72.93
25420;BME280;13354;48.174;11.566;2023-02-28T04:29:05;96133.81;;;-1.98;72.52
25420;BME280;13354;48.174;11.566;2023-02-28T04:31:31;96130.91;;;-1.93;72.74
25420;BME280;13354;48.174;11.566;2023-02-28T04:33:56;96131.53;;;-1.89;72.72
25420;BME280;13354;48.174;11.566;2023-02-28T04:36:22;96142.63;;;-2.00;73.02
25420;BME280;13354;48.174;11.566;2023-02-28T04:38:48;96140.97;;;-2.01;73.03
25420;BME280;13354;48.174;11.566;2023-02-28T04:41:13;96145.44;;;-2.03;73.73
25420;BME280;13354;48.174;11.566;2023-02-28T04:43:39;96139.44;;;-1.91;73.88
25420;BME280;13354;48.174;11.566;2023-02-28T04:46:04;96134.44;;;-1.81;73.38
25420;BME280;13354;48.174;11.566;2023-02-28T04:48:31;96134.75;;;-1.86;72.93
25420;BME280;13354;48.174;11.566;2023-02-28T04:51:00;96131.00;;;-1.82;72.80
25420;BME280;13354;48.174;11.566;2023-02-28T04:53:25;96132.34;;;-1.89;72.95
25420;BME280;13354;48.174;11.566;2023-02-28T04:55:50;96126.44;;;-1.65;72.69
25420;BME280;13354;48.174;11.566;2023-02-28T04:58:16;96135.03;;;-1.78;73.06
25420;BME280;13354;48.174;11.566;2023-02-28T05:00:41;96133.69;;;-1.71;73.01
25420;BME280;13354;48.174;11.566;2023-02-28T05:03:07;96143.25;;;-1.71;72.75
25420;BME280;13354;48.174;11.566;2023-02-28T05:05:32;96137.66;;;-1.78;72.95
25420;BME280;13354;48.174;11.566;2023-02-28T05:07:57;96142.63;;;-1.75;73.27
25420;BME280;13354;48.174;11.566;2023-02-28T05:10:22;96143.75;;;-1.66;73.54
25420;BME280;13354;48.174;11.566;2023-02-28T05:12:48;96154.13;;;-1.66;73.60
25420;BME280;13354;48.174;11.566;2023-02-28T05:15:14;96153.22;;;-1.65;73.74
25420;BME280;13354;48.174;11.566;2023-02-28T05:17:39;96150.00;;;-1.68;73.37
25420;BME280;13354;48.174;11.566;2023-02-28T05:20:05;96155.28;;;-1.70;73.68
25420;BME280;13354;48.174;11.566;2023-02-28T05:22:30;96149.78;;;-1.53;73.47
25420;BME280;13354;48.174;11.566;2023-02-28T05:24:56;96151.53;;;-1.66;73.09
25420;BME280;13354;48.174;11.566;2023-02-28T05:27:21;96153.03;;;-1.62;73.73
25420;BME280;13354;48.174;11.566;2023-02-28T05:29:46;96158.72;;;-1.70;73.17
25420;BME280;13354;48.174;11.566;2023-02-28T05:32:11;96163.16;;;-1.59;72.70
25420;BME280;13354;48.174;11.566;2023-02-28T05:34:40;96150.94;;;-1.57;72.85
25420;BME280;13354;48.174;11.566;2023-02-28T05:37:07;96157.03;;;-1.45;72.82
25420;BME280;13354;48.174;11.566;2023-02-28T05:39:35;96149.78;;;-1.53;73.04
25420;BME280;13354;48.174;11.566;2023-02-28T05:42:00;96146.56;;;-1.43;72.90
25420;BME280;13354;48.174;11.566;2023-02-28T05:44:26;96149.97;;;-1.43;72.95
25420;BME280;13354;48.174;11.566;2023-02-28T05:46:51;96147.59;;;-1.46;72.62
25420;BME280;13354;48.174;11.566;2023-02-28T05:49:16;96148.41;;;-1.46;71.92
25420;BME280;13354;48.174;11.566;2023-02-28T05:51:41;96147.91;;;-1.51;72.75
25420;BME280;13354;48.174;11.566;2023-02-28T05:54:06;96151.97;;;-1.47;72.79
25420;BME280;13354;48.174;11.566;2023-02-28T05:56:32;96149.16;;;-1.43;72.57
25420;BME280;13354;48.174;11.566;2023-02-28T05:58:59;96153.06;;;-1.38;72.96
25420;BME280;13354;48.174;11.566;2023-02-28T06:01:32;96155.88;;;-1.28;71.98
25420;BME280;13354;48.174;11.566;2023-02-28T06:03:58;96158.16;;;-1.36;72.34
25420;BME280;13354;48.174;11.566;2023-02-28T06:06:23;96162.09;;;-1.31;72.49
25420;BME280;13354;48.174;11.566;2023-02-28T06:08:49;96166.88;;;-1.25;72.40
25420;BME280;13354;48.174;11.566;2023-02-28T06:11:14;96159.09;;;-1.37;72.06
25420;BME280;13354;48.174;11.566;2023-02-28T06:13:39;96165.53;;;-1.30;72.25
25420;BME280;13354;48.174;11.566;2023-02-28T06:16:05;96169.81;;;-1.42;72.15
25420;BME280;13354;48.174;11.566;2023-02-28T06:18:30;96173.59;;;-1.22;71.61
25420;BME280;13354;48.174;11.566;2023-02-28T06:20:55;96164.91;;;-1.34;71.45
25420;BME280;13354;48.174;11.566;2023-02-28T06:23:21;96182.66;;;-1.40;72.17
25420;BME280;13354;48.174;11.566;2023-02-28T06:25:47;96184.13;;;-1.36;71.74
25420;BME280;13354;48.174;11.566;2023-02-28T06:28:12;96189.63;;;-1.28;71.79
25420;BME280;13354;48.174;11.566;2023-02-28T06:30:38;96190.88;;;-1.21;72.19
25420;BME280;13354;48.174;11.566;2023-02-28T06:33:03;96182.88;;;-1.31;72.73
25420;BME280;13354;48.174;11.566;2023-02-28T06:35:28;96180.69;;;-1.24;72.69
25420;BME280;13354;48.174;11.566;2023-02-28T06:37:54;96184.72;;;-1.20;72.49
25420;BME280;13354;48.174;11.566;2023-02-28T06:40:19;96190.00;;;-1.22;71.99
25420;BME280;13354;48.174;11.566;2023-02-28T06:42:45;96186.38;;;-1.19;72.17
25420;BME280;13354;48.174;11.566;2023-02-28T06:45:10;96187.53;;;-1.10;71.64
25420;BME280;13354;48.174;11.566;2023-02-28T06:47:36;96190.00;;;-1.09;71.21
25420;BME280;13354;48.174;11.566;2023-02-28T06:50:02;96200.19;;;-1.06;71.10
25420;BME280;13354;48.174;11.566;2023-02-28T06:52:28;96201.13;;;-1.07;71.92
25420;BME280;13354;48.174;11.566;2023-02-28T06:54:53;96204.47;;;-1.17;71.45
25420;BME280;13354;48.174;11.566;2023-02-28T06:57:25;96207.47;;;-1.11;71.71
25420;BME280;13354;48.174;11.566;2023-02-28T06:59:50;96207.78;;;-1.03;71.10
25420;BME280;13354;48.174;11.566;2023-02-28T07:02:15;96211.22;;;-1.15;71.32
25420;BME280;13354;48.174;11.566;2023-02-28T07:04:40;96220.03;;;-1.05;71.22
25420;BME280;13354;48.174;11.566;2023-02-28T07:07:09;96216.28;;;-1.01;71.22
25420;BME280;13354;48.174;11.566;2023-02-28T07:09:34;96226.59;;;-1.12;71.48
25420;BME280;13354;48.174;11.566;2023-02-28T07:11:59;96223.97;;;-0.99;71.53
25420;BME280;13354;48.174;11.566;2023-02-28T07:14:25;96220.84;;;-0.91;71.16
25420;BME280;13354;48.174;11.566;2023-02-28T07:16:51;96226.19;;;-0.82;70.02
25420;BME280;13354;48.174;11.566;2023-02-28T07:19:16;96224.91;;;-1.00;70.41
25420;BME280;13354;48.174;11.566;2023-02-28T07:21:41;96221.53;;;-0.89;70.23
25420;BME280;13354;48.174;11.566;2023-02-28T07:24:06;96217.72;;;-0.97;70.60
25420;BME280;13354;48.174;11.566;2023-02-28T07:26:32;96212.72;;;-0.87;69.93
25420;BME280;13354;48.174;11.566;2023-02-28T07:28:59;96219.00;;;-0.78;70.27
25420;BME280;13354;48.174;11.566;2023-02-28T07:31:24;96216.53;;;-0.80;69.96
25420;BME280;13354;48.174;11.566;2023-02-28T07:33:49;96212.59;;;-0.85;69.34
25420;BME280;13354;48.174;11.566;2023-02-28T07:36:15;96223.84;;;-0.98;69.66
25420;BME280;13354;48.174;11.566;2023-02-28T07:38:42;96231.13;;;-0.90;70.16
25420;BME280;13354;48.174;11.566;2023-02-28T07:41:08;96226.09;;;-0.80;70.29
25420;BME280;13354;48.174;11.566;2023-02-28T07:43:34;96228.44;;;-1.01;70.31
25420;BME280;13354;48.174;11.566;2023-02-28T07:46:05;96225.09;;;-1.03;70.46
25420;BME280;13354;48.174;11.566;2023-02-28T07:48:31;96228.91;;;-0.83;71.07
25420;BME280;13354;48.174;11.566;2023-02-28T07:50:57;96224.44;;;-0.81;71.89
25420;BME280;13354;48.174;11.566;2023-02-28T07:53:22;96221.34;;;-0.86;71.76
25420;BME280;13354;48.174;11.566;2023-02-28T07:55:47;96223.19;;;-0.76;72.96
25420;BME280;13354;48.174;11.566;2023-02-28T07:58:12;96214.53;;;-0.52;75.43
25420;BME280;13354;48.174;11.566;2023-02-28T08:00:38;96217.31;;;-0.42;74.54
25420;BME280;13354;48.174;11.566;2023-02-28T08:03:03;96212.50;;;-0.36;72.55
25420;BME280;13354;48.174;11.566;2023-02-28T08:05:28;96212.72;;;-0.39;69.76
25420;BME280;13354;48.174;11.566;2023-02-28T08:07:55;96216.78;;;-0.59;68.93
25420;BME280;13354;48.174;11.566;2023-02-28T08:10:20;96221.97;;;-0.59;69.10
25420;BME280;13354;48.174;11.566;2023-02-28T08:12:45;96229.78;;;-0.59;69.27
25420;BME280;13354;48.174;11.566;2023-02-28T08:15:10;96223.19;;;-0.52;68.38
25420;BME280;13354;48.174;11.566;2023-02-28T08:17:35;96238.44;;;-0.71;69.37
25420;BME280;13354;48.174;11.566;2023-02-28T08:20:01;96242.47;;;-0.91;69.46
25420;BME280;13354;48.174;11.566;2023-02-28T08:22:26;96242.19;;;-0.75;68.88
25420;BME280;13354;48.174;11.566;2023-02-28T08:24:51;96243.41;;;-0.92;69.58
25420;BME280;13354;48.174;11.566;2023-02-28T08:27:16;96240.06;;;-0.94;69.27
25420;BME280;13354;48.174;11.566;2023-02-28T08:29:42;96242.72;;;-0.70;69.32
25420;BME280;13354;48.174;11.566;2023-02-28T08:32:07;96247.94;;;-0.83;69.42
25420;BME280;13354;48.174;11.566;2023-02-28T08:34:32;96242.63;;;-0.81;69.51
25420;BME280;13354;48.174;11.566;2023-02-28T08:36:58;96246.78;;;-0.79;69.25
25420;BME280;13354;48.174;11.566;2023-02-28T08:39:23;96250.75;;;-0.73;69.29
25420;BME280;13354;48.174;11.566;2023-02-28T08:41:48;96248.34;;;-0.76;68.73
25420;BME280;13354;48.174;11.566;2023-02-28T08:44:13;96255.88;;;-0.84;69.16
25420;BME280;13354;48.174;11.566;2023-02-28T08:46:38;96253.41;;;-0.62;69.38
25420;BME280;13354;48.174;11.566;2023-02-28T08:49:04;96262.19;;;-0.76;69.60
25420;BME280;13354;48.174;11.566;2023-02-28T08:51:29;96261.84;;;-0.71;69.72
25420;BME280;13354;48.174;11.566;2023-02-28T08:53:55;96266.00;;;-0.68;70.39
25420;BME280;13354;48.174;11.566;2023-02-28T08:56:21;96264.22;;;-0.55;69.65
25420;BME280;13354;48.174;11.566;2023-02-28T08:58:47;96267.84;;;-0.58;70.12
25420;BME280;13354;48.174;11.566;2023-02-28T09:01:20;96270.09;;;-0.40;69.53
25420;BME280;13354;48.174;11.566;2023-02-28T09:03:46;96258.19;;;-0.32;69.23
25420;BME280;13354;48.174;11.566;2023-02-28T09:06:11;96258.06;;;-0.30;68.53
25420;BME280;13354;48.174;11.566;2023-02-28T09:08:37;96262.16;;;-0.39;68.11
25420;BME280;13354;48.174;11.566;2023-02-28T09:11:02;96259.41;;;-0.25;67.29
25420;BME280;13354;48.174;11.566;2023-02-28T09:13:28;96266.03;;;-0.20;67.37
25420;BME280;13354;48.174;11.566;2023-02-28T09:15:54;96260.88;;;-0.33;68.00
25420;BME280;13354;48.174;11.566;2023-02-28T09:18:19;96266.97;;;-0.21;67.75
25420;BME280;13354;48.174;11.566;2023-02-28T09:20:45;96270.28;;;-0.19;67.79
25420;BME280;13354;48.174;11.566;2023-02-28T09:23:11;96265.84;;;-0.06;67.68
25420;BME280;13354;48.174;11.566;2023-02-28T09:25:36;96264.25;;;-0.20;68.13
25420;BME280;13354;48.174;11.566;2023-02-28T09:28:02;96275.06;;;-0.13;67.19
25420;BME280;13354;48.174;11.566;2023-02-28T09:30:28;96279.53;;;-0.15;67.35
25420;BME280;13354;48.174;11.566;2023-02-28T09:32:53;96277.97;;;0.06;66.35
25420;BME280;13354;48.174;11.566;2023-02-28T09:35:21;96282.78;;;-0.01;66.69
25420;BME280;13354;48.174;11.566;2023-02-28T09:37:48;96286.00;;;0.03;67.31
25420;BME280;13354;48.174;11.566;2023-02-28T09:40:13;96288.00;;;-0.01;67.11
25420;BME280;13354;48.174;11.566;2023-02-28T09:42:39;96298.75;;;-0.05;66.34
25420;BME280;13354;48.174;11.566;2023-02-28T09:45:06;96296.94;;;0.08;67.11
25420;BME280;13354;48.174;11.566;2023-02-28T09:47:39;96294.72;;;-0.09;67.11
25420;BME280;13354;48.174;11.566;2023-02-28T09:52:43;96303.78;;;-0.15;67.36
25420;BME280;13354;48.174;11.566;2023-02-28T09:57:41;96309.69;;;0.00;67.02
25420;BME280;13354;48.174;11.566;2023-02-28T10:05:13;96309.06;;;-0.04;66.33
25420;BME280;13354;48.174;11.566;2023-02-28T10:10:06;96309.38;;;-0.08;65.76
25420;BME280;13354;48.174;11.566;2023-02-28T10:12:38;96305.00;;;-0.08;65.37
25420;BME280;13354;48.174;11.566;2023-02-28T10:15:07;96299.81;;;0.28;66.01
25420;BME280;13354;48.174;11.566;2023-02-28T10:17:40;96307.41;;;0.31;66.08
25420;BME280;13354;48.174;11.566;2023-02-28T10:20:12;96318.22;;;0.13;65.68
25420;BME280;13354;48.174;11.566;2023-02-28T10:25:18;96317.28;;;0.38;65.23
25420;BME280;13354;48.174;11.566;2023-02-28T10:27:44;96317.63;;;0.34;65.34
25420;BME280;13354;48.174;11.566;2023-02-28T10:30:10;96312.44;;;0.45;65.27
25420;BME280;13354;48.174;11.566;2023-02-28T10:32:36;96318.06;;;0.63;65.39
25420;BME280;13354;48.174;11.566;2023-02-28T10:37:34;96316.69;;;0.92;64.03
25420;BME280;13354;48.174;11.566;2023-02-28T10:40:03;96318.81;;;1.10;63.96
25420;BME280;13354;48.174;11.566;2023-02-28T10:42:31;96313.78;;;1.85;62.96
25420;BME280;13354;48.174;11.566;2023-02-28T10:45:07;96303.94;;;2.42;61.26
25420;BME280;13354;48.174;11.566;2023-02-28T10:47:34;96302.91;;;2.96;59.63
25420;BME280;13354;48.174;11.566;2023-02-28T10:50:03;96306.34;;;3.18;57.87
25420;BME280;13354;48.174;11.566;2023-02-28T10:52:32;96309.78;;;3.18;56.38
25420;BME280;13354;48.174;11.566;2023-02-28T10:55:13;96308.84;;;3.29;56.73
25420;BME280;13354;48.174;11.566;2023-02-28T10:57:39;96312.72;;;3.34;56.51
25420;BME280;13354;48.174;11.566;2023-02-28T11:00:21;96310.25;;;3.73;55.91
25420;BME280;13354;48.174;11.566;2023-02-28T11:02:46;96312.81;;;3.63;55.08
25420;BME280;13354;48.174;11.566;2023-02-28T11:05:26;96316.28;;;3.64;55.43
25420;BME280;13354;48.174;11.566;2023-02-28T11:07:53;96316.59;;;3.80;55.21
25420;BME280;13354;48.174;11.566;2023-02-28T11:10:19;96318.31;;;3.60;55.60
25420;BME280;13354;48.174;11.566;2023-02-28T11:12:46;96315.84;;;3.59;54.90
25420;BME280;13354;48.174;11.566;2023-02-28T11:17:53;96314.22;;;3.68;55.58
25420;BME280;13354;48.174;11.566;2023-02-28T11:20:21;96315.44;;;3.54;55.26
25420;BME280;13354;48.174;11.566;2023-02-28T11:22:48;96321.03;;;3.49;55.18
25420;BME280;13354;48.174;11.566;2023-02-28T11:25:20;96323.28;;;3.54;55.50
25420;BME280;13354;48.174;11.566;2023-02-28T11:27:50;96317.00;;;3.76;54.88
25420;BME280;13354;48.174;11.566;2023-02-28T11:30:30;96309.78;;;3.68;54.53
25420;BME280;13354;48.174;11.566;2023-02-28T11:32:56;96314.84;;;4.00;54.68
25420;BME280;13354;48.174;11.566;2023-02-28T11:35:54;96307.84;;;4.20;54.33
25420;BME280;13354;48.174;11.566;2023-02-28T11:38:12;96295.09;;;4.74;54.30
25420;BME280;13354;48.174;11.566;2023-02-28T11:43:39;96296.47;;;4.78;52.88
25420;BME280;13354;48.174;11.566;2023-02-28T11:46:13;96297.88;;;4.63;53.25
25420;BME280;13354;48.174;11.566;2023-02-28T11:48:49;96285.44;;;4.84;52.14
25420;BME280;13354;48.174;11.566;2023-02-28T11:51:29;96283.84;;;5.11;51.74
25420;BME280;13354;48.174;11.566;2023-02-28T11:56:38;96285.47;;;5.12;51.26
25420;BME280;13354;48.174;11.566;2023-02-28T12:19:19;96271.81;;;5.73;50.65
25420;BME280;13354;48.174;11.566;2023-02-28T12:21:52;96268.28;;;5.64;50.78
25420;BME280;13354;48.174;11.566;2023-02-28T12:26:56;96260.19;;;5.75;50.88
25420;BME280;13354;48.174;11.566;2023-02-28T12:29:30;96257.63;;;5.84;50.82
25420;BME280;13354;48.174;11.566;2023-02-28T12:31:59;96251.50;;;6.46;50.91
25420;BME280;13354;48.174;11.566;2023-02-28T12:34:31;96252.66;;;6.70;49.36
25420;BME280;13354;48.174;11.566;2023-02-28T12:36:58;96254.31;;;6.89;47.76
25420;BME280;13354;48.174;11.566;2023-02-28T12:39:32;96256.00;;;6.98;49.03
25420;BME280;13354;48.174;11.566;2023-02-28T12:42:01;96250.69;;;7.24;47.88
25420;BME280;13354;48.174;11.566;2023-02-28T12:44:37;96241.97;;;7.23;47.44
25420;BME280;13354;48.174;11.566;2023-02-28T12:47:09;96241.25;;;7.13;47.23
25420;BME280;13354;48.174;11.566;2023-02-28T12:49:38;96234.91;;;7.66;47.18
25420;BME280;13354;48.174;11.566;2023-02-28T12:52:06;96236.44;;;7.85;46.48
25420;BME280;13354;48.174;11.566;2023-02-28T12:54:38;96234.19;;;8.23;46.02
25420;BME280;13354;48.174;11.566;2023-02-28T12:57:12;96234.22;;;8.80;45.73
25420;BME280;13354;48.174;11.566;2023-02-28T12:59:41;96238.50;;;8.89;44.67
25420;BME280;13354;48.174;11.566;2023-02-28T13:04:45;96236.28;;;9.09;43.68
25420;BME280;13354;48.174;11.566;2023-02-28T13:09:51;96233.34;;;8.06;43.82
25420;BME280;13354;48.174;11.566;2023-02-28T13:12:17;96231.88;;;8.12;44.84
25420;BME280;13354;48.174;11.566;2023-02-28T13:14:42;96234.44;;;7.79;45.20
25420;BME280;13354;48.174;11.566;2023-02-28T13:19:40;96239.31;;;7.58;45.28
25420;BME280;13354;48.174;11.566;2023-02-28T13:22:15;96243.38;;;7.10;46.39
25420;BME280;13354;48.174;11.566;2023-02-28T13:24:43;96248.81;;;6.56;46.59
25420;BME280;13354;48.174;11.566;2023-02-28T13:29:35;96249.63;;;6.57;47.80
25420;BME280;13354;48.174;11.566;2023-02-28T13:34:33;96237.47;;;6.38;48.63
25420;BME280;13354;48.174;11.566;2023-02-28T13:47:35;96253.19;;;6.73;47.67
25420;BME280;13354;48.174;11.566;2023-02-28T13:50:15;96243.31;;;6.93;47.88
25420;BME280;13354;48.174;11.566;2023-02-28T13:52:48;96252.38;;;6.73;48.33
25420;BME280;13354;48.174;11.566;2023-02-28T13:57:44;96246.09;;;6.48;47.96
25420;BME280;13354;48.174;11.566;2023-02-28T14:00:31;96243.63;;;6.28;49.01
25420;BME280;13354;48.174;11.566;2023-02-28T14:05:29;96247.94;;;5.84;48.97
25420;BME280;13354;48.174;11.566;2023-02-28T14:07:57;96242.53;;;5.68;49.55
25420;BME280;13354;48.174;11.566;2023-02-28T14:10:27;96244.47;;;6.11;50.45
25420;BME280;13354;48.174;11.566;2023-02-28T14:12:54;96247.84;;;6.03;49.47
25420;BME280;13354;48.174;11.566;2023-02-28T14:15:27;96243.25;;;6.41;49.80
25420;BME280;13354;48.174;11.566;2023-02-28T14:17:57;96237.34;;;6.65;49.00
25420;BME280;13354;48.174;11.566;2023-02-28T14:20:25;96235.16;;;6.78;48.77
25420;BME280;13354;48.174;11.566;2023-02-28T14:22:56;96234.72;;;6.91;47.88
25420;BME280;13354;48.174;11.566;2023-02-28T14:28:06;96239.41;;;6.80;47.17
25420;BME280;13354;48.174;11.566;2023-02-28T14:33:18;96237.91;;;6.51;47.44
25420;BME280;13354;48.174;11.566;2023-02-28T14:35:54;96241.09;;;6.63;47.88
25420;BME280;13354;48.174;11.566;2023-02-28T14:38:23;96239.97;;;6.65;47.70
25420;BME280;13354;48.174;11.566;2023-02-28T14:40:51;96234.13;;;6.71;48.76
25420;BME280;13354;48.174;11.566;2023-02-28T14:43:24;96234.16;;;6.80;47.81
25420;BME280;13354;48.174;11.566;2023-02-28T14:45:50;96245.03;;;6.59;47.63
25420;BME280;13354;48.174;11.566;2023-02-28T14:48:16;96242.78;;;6.64;47.91
25420;BME280;13354;48.174;11.566;2023-02-28T14:50:48;96237.81;;;6.61;47.85
25420;BME280;13354;48.174;11.566;2023-02-28T14:53:15;96235.97;;;6.17;47.81